sensor_id;sensor_type;location;lat;lon;timestamp;temperature;humidity
5055;DHT22;13829;48.990;8.346;2023-04-28T00:00:35;14.00;99.90
5055;DHT22;13829;48.990;8.346;2023-04-28T00:03:03;14.10;99.90
5055;DHT22;13829;48.990;8.346;2023-04-28T00:05:31;14.10;99.90
5055;DHT22;13829;48.990;8.346;2023-04-28T00:07:58;14.20;99.90
5055;DHT22;13829;48.990;8.346;2023-04-28T00:10:25;14.20;99.90
5055;DHT22;13829;48.990;8.346;2023-04-28T00:12:52;14.20;99.90
5055;DHT22;13829;48.990;8.346;2023-04-28T00:15:19;14.20;99.90
5055;DHT22;13829;48.990;8.346;2023-04-28T00:17:46;14.20;99.90
5055;DHT22;13829;48.990;8.346;2023-04-28T00:20:13;14.10;99.90
5055;DHT22;13829;48.990;8.346;2023-04-28T00:22:41;14.10;99.90
5055;DHT22;13829;48.990;8.346;2023-04-28T00:25:08;14.10;99.90
5055;DHT22;13829;48.990;8.346;2023-04-28T00:27:35;14.10;99.90
5055;DHT22;13829;48.990;8.346;2023-04-28T00:30:03;14.20;99.90
5055;DHT22;13829;48.990;8.346;2023-04-28T00:32:30;14.20;99.90
5055;DHT22;13829;48.990;8.346;2023-04-28T00:34:57;14.20;99.90
5055;DHT22;13829;48.990;8.346;2023-04-28T00:37:24;14.10;99.90
5055;DHT22;13829;48.990;8.346;2023-04-28T00:39:55;14.10;99.90
5055;DHT22;13829;48.990;8.346;2023-04-28T00:42:22;14.00;99.90
5055;DHT22;13829;48.990;8.346;2023-04-28T00:44:49;14.10;99.90
5055;DHT22;13829;48.990;8.346;2023-04-28T00:47:17;14.00;99.90
5055;DHT22;13829;48.990;8.346;2023-04-28T00:49:44;14.00;99.90
5055;DHT22;13829;48.990;8.346;2023-04-28T00:52:14;14.10;99.90
5055;DHT22;13829;48.990;8.346;2023-04-28T00:54:41;14.10;99.90
5055;DHT22;13829;48.990;8.346;2023-04-28T00:57:10;14.10;99.90
5055;DHT22;13829;48.990;8.346;2023-04-28T00:59:37;14.10;99.90
5055;DHT22;13829;48.990;8.346;2023-04-28T01:02:04;14.00;99.90
5055;DHT22;13829;48.990;8.346;2023-04-28T01:04:32;14.10;99.90
5055;DHT22;13829;48.990;8.346;2023-04-28T01:07:00;14.10;99.90
5055;DHT22;13829;48.990;8.346;2023-04-28T01:09:28;14.10;99.90
5055;DHT22;13829;48.990;8.346;2023-04-28T01:11:55;14.10;99.90
5055;DHT22;13829;48.990;8.346;2023-04-28T01:14:24;14.10;99.90
5055;DHT22;13829;48.990;8.346;2023-04-28T01:16:52;14.10;99.90
5055;DHT22;13829;48.990;8.346;2023-04-28T01:19:20;14.00;99.90
5055;DHT22;13829;48.990;8.346;2023-04-28T01:21:48;14.00;99.90
5055;DHT22;13829;48.990;8.346;2023-04-28T01:24:16;14.00;99.90
5055;DHT22;13829;48.990;8.346;2023-04-28T01:26:44;14.00;99.90
5055;DHT22;13829;48.990;8.346;2023-04-28T01:29:11;14.00;99.90
5055;DHT22;13829;48.990;8.346;2023-04-28T01:31:38;14.00;99.90
5055;DHT22;13829;48.990;8.346;2023-04-28T01:34:05;14.00;99.90
5055;DHT22;13829;48.990;8.346;2023-04-28T01:36:32;14.00;99.90
5055;DHT22;13829;48.990;8.346;2023-04-28T01:38:59;14.00;99.90
5055;DHT22;13829;48.990;8.346;2023-04-28T01:41:28;14.00;99.90
5055;DHT22;13829;48.990;8.346;2023-04-28T01:43:55;14.00;99.90
5055;DHT22;13829;48.990;8.346;2023-04-28T01:46:21;14.00;99.90
5055;DHT22;13829;48.990;8.346;2023-04-28T01:48:48;13.90;99.90
5055;DHT22;13829;48.990;8.346;2023-04-28T01:51:15;13.90;99.90
5055;DHT22;13829;48.990;8.346;2023-04-28T01:54:01;13.90;99.90
5055;DHT22;13829;48.990;8.346;2023-04-28T01:57:05;14.00;99.90
5055;DHT22;13829;48.990;8.346;2023-04-28T01:59:32;13.90;99.90
5055;DHT22;13829;48.990;8.346;2023-04-28T02:01:59;13.80;99.90
5055;DHT22;13829;48.990;8.346;2023-04-28T02:04:26;13.90;99.90
5055;DHT22;13829;48.990;8.346;2023-04-28T02:06:53;13.90;99.90
5055;DHT22;13829;48.990;8.346;2023-04-28T02:09:20;13.90;99.90
5055;DHT22;13829;48.990;8.346;2023-04-28T02:11:47;13.80;99.90
5055;DHT22;13829;48.990;8.346;2023-04-28T02:14:15;13.80;99.90
5055;DHT22;13829;48.990;8.346;2023-04-28T02:16:42;13.90;99.90
5055;DHT22;13829;48.990;8.346;2023-04-28T02:19:09;13.90;99.90
5055;DHT22;13829;48.990;8.346;2023-04-28T02:21:36;13.80;99.90
5055;DHT22;13829;48.990;8.346;2023-04-28T02:24:04;13.80;99.90
5055;DHT22;13829;48.990;8.346;2023-04-28T02:26:33;13.70;99.90
5055;DHT22;13829;48.990;8.346;2023-04-28T02:29:00;13.70;99.90
5055;DHT22;13829;48.990;8.346;2023-04-28T02:31:30;13.70;99.90
5055;DHT22;13829;48.990;8.346;2023-04-28T02:33:57;13.70;99.90
5055;DHT22;13829;48.990;8.346;2023-04-28T02:36:24;13.70;99.90
5055;DHT22;13829;48.990;8.346;2023-04-28T02:38:52;13.60;99.90
5055;DHT22;13829;48.990;8.346;2023-04-28T02:41:19;13.60;99.90
5055;DHT22;13829;48.990;8.346;2023-04-28T02:43:46;13.60;99.90
5055;DHT22;13829;48.990;8.346;2023-04-28T02:46:13;13.60;99.90
5055;DHT22;13829;48.990;8.346;2023-04-28T02:48:41;13.60;99.90
5055;DHT22;13829;48.990;8.346;2023-04-28T02:51:08;13.50;99.90
5055;DHT22;13829;48.990;8.346;2023-04-28T02:53:35;13.40;99.90
5055;DHT22;13829;48.990;8.346;2023-04-28T02:56:02;13.40;99.90
5055;DHT22;13829;48.990;8.346;2023-04-28T02:58:29;13.30;99.90
5055;DHT22;13829;48.990;8.346;2023-04-28T03:00:56;13.30;99.90
5055;DHT22;13829;48.990;8.346;2023-04-28T03:03:23;13.30;99.90
5055;DHT22;13829;48.990;8.346;2023-04-28T03:05:51;13.20;99.90
5055;DHT22;13829;48.990;8.346;2023-04-28T03:08:21;13.20;99.90
5055;DHT22;13829;48.990;8.346;2023-04-28T03:10:48;13.20;99.90
5055;DHT22;13829;48.990;8.346;2023-04-28T03:13:15;13.10;99.90
5055;DHT22;13829;48.990;8.346;2023-04-28T03:15:41;13.10;99.90
5055;DHT22;13829;48.990;8.346;2023-04-28T03:18:08;13.10;99.90
5055;DHT22;13829;48.990;8.346;2023-04-28T03:20:35;13.10;99.90
5055;DHT22;13829;48.990;8.346;2023-04-28T03:23:03;13.10;99.90
5055;DHT22;13829;48.990;8.346;2023-04-28T03:25:31;13.20;99.90
5055;DHT22;13829;48.990;8.346;2023-04-28T03:27:58;13.20;99.90
5055;DHT22;13829;48.990;8.346;2023-04-28T03:30:25;13.20;99.90
5055;DHT22;13829;48.990;8.346;2023-04-28T03:32:52;13.20;99.90
5055;DHT22;13829;48.990;8.346;2023-04-28T03:35:19;13.20;99.90
5055;DHT22;13829;48.990;8.346;2023-04-28T03:37:46;13.10;99.90
5055;DHT22;13829;48.990;8.346;2023-04-28T03:40:15;13.10;99.90
5055;DHT22;13829;48.990;8.346;2023-04-28T03:42:42;13.10;99.90
5055;DHT22;13829;48.990;8.346;2023-04-28T03:45:10;13.00;99.90
5055;DHT22;13829;48.990;8.346;2023-04-28T03:47:37;13.00;99.90
5055;DHT22;13829;48.990;8.346;2023-04-28T03:50:05;13.00;99.90
5055;DHT22;13829;48.990;8.346;2023-04-28T03:52:33;13.00;99.90
5055;DHT22;13829;48.990;8.346;2023-04-28T03:54:59;13.10;99.90
5055;DHT22;13829;48.990;8.346;2023-04-28T03:57:28;13.10;99.90
5055;DHT22;13829;48.990;8.346;2023-04-28T03:59:55;13.10;99.90
5055;DHT22;13829;48.990;8.346;2023-04-28T04:02:21;13.00;99.90
5055;DHT22;13829;48.990;8.346;2023-04-28T04:04:48;13.00;99.90
5055;DHT22;13829;48.990;8.346;2023-04-28T04:07:15;13.00;99.90
5055;DHT22;13829;48.990;8.346;2023-04-28T04:09:42;13.00;99.90
5055;DHT22;13829;48.990;8.346;2023-04-28T04:12:09;13.00;99.90
5055;DHT22;13829;48.990;8.346;2023-04-28T04:14:37;13.00;99.90
5055;DHT22;13829;48.990;8.346;2023-04-28T04:17:05;13.00;99.90
5055;DHT22;13829;48.990;8.346;2023-04-28T04:19:32;13.00;99.90
5055;DHT22;13829;48.990;8.346;2023-04-28T04:21:59;13.10;99.90
5055;DHT22;13829;48.990;8.346;2023-04-28T04:24:26;13.10;99.90
5055;DHT22;13829;48.990;8.346;2023-04-28T04:26:52;13.10;99.90
5055;DHT22;13829;48.990;8.346;2023-04-28T04:29:19;13.10;99.90
5055;DHT22;13829;48.990;8.346;2023-04-28T04:31:48;13.10;99.90
5055;DHT22;13829;48.990;8.346;2023-04-28T04:34:15;13.20;99.90
5055;DHT22;13829;48.990;8.346;2023-04-28T04:36:42;13.20;99.90
5055;DHT22;13829;48.990;8.346;2023-04-28T04:39:09;13.20;99.90
5055;DHT22;13829;48.990;8.346;2023-04-28T04:41:36;13.20;99.90
5055;DHT22;13829;48.990;8.346;2023-04-28T04:44:04;13.20;99.90
5055;DHT22;13829;48.990;8.346;2023-04-28T04:46:31;13.20;99.90
5055;DHT22;13829;48.990;8.346;2023-04-28T04:48:59;13.20;99.90
5055;DHT22;13829;48.990;8.346;2023-04-28T04:51:26;13.30;99.90
5055;DHT22;13829;48.990;8.346;2023-04-28T04:53:54;13.40;99.90
5055;DHT22;13829;48.990;8.346;2023-04-28T04:56:21;13.40;99.90
5055;DHT22;13829;48.990;8.346;2023-04-28T04:58:51;13.40;99.90
5055;DHT22;13829;48.990;8.346;2023-04-28T05:01:18;13.40;99.90
5055;DHT22;13829;48.990;8.346;2023-04-28T05:03:45;13.40;99.90
5055;DHT22;13829;48.990;8.346;2023-04-28T05:06:13;13.40;99.90
5055;DHT22;13829;48.990;8.346;2023-04-28T05:08:40;13.50;99.90
5055;DHT22;13829;48.990;8.346;2023-04-28T05:11:07;13.50;99.90
5055;DHT22;13829;48.990;8.346;2023-04-28T05:13:34;13.40;99.90
5055;DHT22;13829;48.990;8.346;2023-04-28T05:16:01;13.50;99.90
5055;DHT22;13829;48.990;8.346;2023-04-28T05:18:28;13.50;99.90
5055;DHT22;13829;48.990;8.346;2023-04-28T05:20:54;13.50;99.90
5055;DHT22;13829;48.990;8.346;2023-04-28T05:23:23;13.50;99.90
5055;DHT22;13829;48.990;8.346;2023-04-28T05:25:50;13.60;99.90
5055;DHT22;13829;48.990;8.346;2023-04-28T05:28:17;13.70;99.90
5055;DHT22;13829;48.990;8.346;2023-04-28T05:30:44;13.70;99.90
5055;DHT22;13829;48.990;8.346;2023-04-28T05:33:11;13.70;99.90
5055;DHT22;13829;48.990;8.346;2023-04-28T05:35:38;13.70;99.90
5055;DHT22;13829;48.990;8.346;2023-04-28T05:38:05;13.70;99.90
5055;DHT22;13829;48.990;8.346;2023-04-28T05:40:33;13.80;99.90
5055;DHT22;13829;48.990;8.346;2023-04-28T05:43:00;13.80;99.90
5055;DHT22;13829;48.990;8.346;2023-04-28T05:45:27;13.80;99.90
5055;DHT22;13829;48.990;8.346;2023-04-28T05:47:54;13.90;99.90
5055;DHT22;13829;48.990;8.346;2023-04-28T05:50:21;14.00;99.90
5055;DHT22;13829;48.990;8.346;2023-04-28T05:52:48;14.10;99.90
5055;DHT22;13829;48.990;8.346;2023-04-28T05:55:15;14.10;99.90
5055;DHT22;13829;48.990;8.346;2023-04-28T05:57:44;14.20;99.90
5055;DHT22;13829;48.990;8.346;2023-04-28T06:00:12;14.10;99.90
5055;DHT22;13829;48.990;8.346;2023-04-28T06:02:40;14.20;99.90
5055;DHT22;13829;48.990;8.346;2023-04-28T06:05:08;14.20;99.90
5055;DHT22;13829;48.990;8.346;2023-04-28T06:07:35;14.20;99.90
5055;DHT22;13829;48.990;8.346;2023-04-28T06:10:02;14.20;99.90
5055;DHT22;13829;48.990;8.346;2023-04-28T06:12:30;14.30;99.90
5055;DHT22;13829;48.990;8.346;2023-04-28T06:14:59;14.30;99.90
5055;DHT22;13829;48.990;8.346;2023-04-28T06:17:26;14.40;99.90
5055;DHT22;13829;48.990;8.346;2023-04-28T06:19:55;14.40;99.90
5055;DHT22;13829;48.990;8.346;2023-04-28T06:22:23;14.40;99.90
5055;DHT22;13829;48.990;8.346;2023-04-28T06:24:51;14.50;99.90
5055;DHT22;13829;48.990;8.346;2023-04-28T06:27:18;14.60;99.90
5055;DHT22;13829;48.990;8.346;2023-04-28T06:29:45;14.50;99.90
5055;DHT22;13829;48.990;8.346;2023-04-28T06:32:13;14.60;99.90
5055;DHT22;13829;48.990;8.346;2023-04-28T06:34:40;14.60;99.90
5055;DHT22;13829;48.990;8.346;2023-04-28T06:37:07;14.60;99.90
5055;DHT22;13829;48.990;8.346;2023-04-28T06:39:34;14.60;99.90
5055;DHT22;13829;48.990;8.346;2023-04-28T06:42:02;14.60;99.90
5055;DHT22;13829;48.990;8.346;2023-04-28T06:44:29;14.60;99.90
5055;DHT22;13829;48.990;8.346;2023-04-28T06:46:56;14.60;99.90
5055;DHT22;13829;48.990;8.346;2023-04-28T06:49:24;14.50;99.90
5055;DHT22;13829;48.990;8.346;2023-04-28T06:51:51;14.50;99.90
5055;DHT22;13829;48.990;8.346;2023-04-28T06:54:18;14.50;99.90
5055;DHT22;13829;48.990;8.346;2023-04-28T06:56:45;14.50;99.90
5055;DHT22;13829;48.990;8.346;2023-04-28T06:59:12;14.50;99.90
5055;DHT22;13829;48.990;8.346;2023-04-28T07:01:39;14.40;99.90
5055;DHT22;13829;48.990;8.346;2023-04-28T07:04:06;14.40;99.90
5055;DHT22;13829;48.990;8.346;2023-04-28T07:06:34;14.30;99.90
5055;DHT22;13829;48.990;8.346;2023-04-28T07:09:01;14.30;99.90
5055;DHT22;13829;48.990;8.346;2023-04-28T07:11:29;14.30;99.90
5055;DHT22;13829;48.990;8.346;2023-04-28T07:13:57;14.40;99.90
5055;DHT22;13829;48.990;8.346;2023-04-28T07:16:25;14.40;99.90
5055;DHT22;13829;48.990;8.346;2023-04-28T07:18:52;14.40;99.90
5055;DHT22;13829;48.990;8.346;2023-04-28T07:21:18;14.40;99.90
5055;DHT22;13829;48.990;8.346;2023-04-28T07:23:47;14.50;99.90
5055;DHT22;13829;48.990;8.346;2023-04-28T07:26:14;14.50;99.90
5055;DHT22;13829;48.990;8.346;2023-04-28T07:28:43;14.50;99.90
5055;DHT22;13829;48.990;8.346;2023-04-28T07:31:10;14.40;99.90
5055;DHT22;13829;48.990;8.346;2023-04-28T07:33:37;14.50;99.90
5055;DHT22;13829;48.990;8.346;2023-04-28T07:36:05;14.40;99.90
5055;DHT22;13829;48.990;8.346;2023-04-28T07:38:33;14.40;99.90
5055;DHT22;13829;48.990;8.346;2023-04-28T07:41:01;14.40;99.90
5055;DHT22;13829;48.990;8.346;2023-04-28T07:43:29;14.50;99.90
5055;DHT22;13829;48.990;8.346;2023-04-28T07:45:56;14.50;99.90
5055;DHT22;13829;48.990;8.346;2023-04-28T07:48:23;14.60;99.90
5055;DHT22;13829;48.990;8.346;2023-04-28T07:50:51;14.60;99.90
5055;DHT22;13829;48.990;8.346;2023-04-28T07:53:18;14.60;99.90
5055;DHT22;13829;48.990;8.346;2023-04-28T07:55:45;14.70;99.90
5055;DHT22;13829;48.990;8.346;2023-04-28T07:58:13;14.70;99.90
5055;DHT22;13829;48.990;8.346;2023-04-28T08:00:41;14.70;99.90
5055;DHT22;13829;48.990;8.346;2023-04-28T08:03:08;14.80;99.90
5055;DHT22;13829;48.990;8.346;2023-04-28T08:05:35;14.80;99.90
5055;DHT22;13829;48.990;8.346;2023-04-28T08:08:02;14.80;99.90
5055;DHT22;13829;48.990;8.346;2023-04-28T08:10:29;14.80;99.90
5055;DHT22;13829;48.990;8.346;2023-04-28T08:12:56;14.80;99.90
5055;DHT22;13829;48.990;8.346;2023-04-28T08:15:24;14.90;99.90
5055;DHT22;13829;48.990;8.346;2023-04-28T08:17:52;14.90;99.90
5055;DHT22;13829;48.990;8.346;2023-04-28T08:20:19;14.90;99.90
5055;DHT22;13829;48.990;8.346;2023-04-28T08:22:46;14.90;99.90
5055;DHT22;13829;48.990;8.346;2023-04-28T08:25:13;15.00;99.90
5055;DHT22;13829;48.990;8.346;2023-04-28T08:27:40;15.00;99.90
5055;DHT22;13829;48.990;8.346;2023-04-28T08:30:08;15.10;99.90
5055;DHT22;13829;48.990;8.346;2023-04-28T08:32:37;15.10;99.90
5055;DHT22;13829;48.990;8.346;2023-04-28T08:35:04;15.20;99.90
5055;DHT22;13829;48.990;8.346;2023-04-28T08:37:32;15.20;99.90
5055;DHT22;13829;48.990;8.346;2023-04-28T08:40:00;15.30;99.90
5055;DHT22;13829;48.990;8.346;2023-04-28T08:42:29;15.30;99.90
5055;DHT22;13829;48.990;8.346;2023-04-28T08:44:57;15.40;99.90
5055;DHT22;13829;48.990;8.346;2023-04-28T08:47:31;15.50;99.90
5055;DHT22;13829;48.990;8.346;2023-04-28T08:50:05;15.50;99.90
5055;DHT22;13829;48.990;8.346;2023-04-28T08:52:33;15.60;99.90
5055;DHT22;13829;48.990;8.346;2023-04-28T08:55:05;15.60;99.90
5055;DHT22;13829;48.990;8.346;2023-04-28T08:57:37;15.70;99.90
5055;DHT22;13829;48.990;8.346;2023-04-28T09:00:06;15.70;99.90
5055;DHT22;13829;48.990;8.346;2023-04-28T09:02:33;15.70;99.90
5055;DHT22;13829;48.990;8.346;2023-04-28T09:05:06;15.70;99.90
5055;DHT22;13829;48.990;8.346;2023-04-28T09:07:34;15.70;99.90
5055;DHT22;13829;48.990;8.346;2023-04-28T09:10:14;15.70;99.90
5055;DHT22;13829;48.990;8.346;2023-04-28T09:12:42;15.80;99.90
5055;DHT22;13829;48.990;8.346;2023-04-28T09:15:10;15.80;99.90
5055;DHT22;13829;48.990;8.346;2023-04-28T09:17:50;15.80;99.90
5055;DHT22;13829;48.990;8.346;2023-04-28T09:20:23;15.70;99.90
5055;DHT22;13829;48.990;8.346;2023-04-28T09:22:51;15.80;99.90
5055;DHT22;13829;48.990;8.346;2023-04-28T09:25:20;15.90;99.90
5055;DHT22;13829;48.990;8.346;2023-04-28T09:27:48;16.10;99.90
5055;DHT22;13829;48.990;8.346;2023-04-28T09:30:16;16.10;99.90
5055;DHT22;13829;48.990;8.346;2023-04-28T09:32:43;16.20;99.90
5055;DHT22;13829;48.990;8.346;2023-04-28T09:35:10;16.30;99.90
5055;DHT22;13829;48.990;8.346;2023-04-28T09:37:38;16.40;99.90
5055;DHT22;13829;48.990;8.346;2023-04-28T09:40:06;16.50;99.90
5055;DHT22;13829;48.990;8.346;2023-04-28T09:42:36;16.50;99.90
5055;DHT22;13829;48.990;8.346;2023-04-28T09:45:05;16.60;99.90
5055;DHT22;13829;48.990;8.346;2023-04-28T09:47:35;16.70;99.90
5055;DHT22;13829;48.990;8.346;2023-04-28T09:50:05;16.90;99.90
5055;DHT22;13829;48.990;8.346;2023-04-28T09:52:34;16.80;99.90
5055;DHT22;13829;48.990;8.346;2023-04-28T09:55:04;16.80;99.90
5055;DHT22;13829;48.990;8.346;2023-04-28T09:57:34;16.90;99.90
5055;DHT22;13829;48.990;8.346;2023-04-28T10:00:03;17.10;99.90
5055;DHT22;13829;48.990;8.346;2023-04-28T10:02:34;17.30;99.90
5055;DHT22;13829;48.990;8.346;2023-04-28T10:05:02;17.40;99.90
5055;DHT22;13829;48.990;8.346;2023-04-28T10:07:33;17.50;99.90
5055;DHT22;13829;48.990;8.346;2023-04-28T10:10:00;17.50;99.90
5055;DHT22;13829;48.990;8.346;2023-04-28T10:12:31;17.60;99.90
5055;DHT22;13829;48.990;8.346;2023-04-28T10:14:59;17.50;99.90
5055;DHT22;13829;48.990;8.346;2023-04-28T10:17:27;17.50;99.90
5055;DHT22;13829;48.990;8.346;2023-04-28T10:19:54;17.40;99.90
5055;DHT22;13829;48.990;8.346;2023-04-28T10:22:32;17.30;99.90
5055;DHT22;13829;48.990;8.346;2023-04-28T10:25:24;17.10;99.90
5055;DHT22;13829;48.990;8.346;2023-04-28T10:27:53;17.10;99.90
5055;DHT22;13829;48.990;8.346;2023-04-28T10:30:21;17.20;99.90
5055;DHT22;13829;48.990;8.346;2023-04-28T10:33:21;17.10;99.90
5055;DHT22;13829;48.990;8.346;2023-04-28T10:35:50;17.10;99.90
5055;DHT22;13829;48.990;8.346;2023-04-28T10:38:17;17.30;99.90
5055;DHT22;13829;48.990;8.346;2023-04-28T10:40:48;17.50;99.90
5055;DHT22;13829;48.990;8.346;2023-04-28T10:43:32;17.60;99.90
5055;DHT22;13829;48.990;8.346;2023-04-28T10:46:05;17.70;99.90
5055;DHT22;13829;48.990;8.346;2023-04-28T10:48:55;17.80;99.90
5055;DHT22;13829;48.990;8.346;2023-04-28T10:51:29;17.80;99.90
5055;DHT22;13829;48.990;8.346;2023-04-28T10:54:17;17.80;99.90
5055;DHT22;13829;48.990;8.346;2023-04-28T10:57:17;17.90;99.90
5055;DHT22;13829;48.990;8.346;2023-04-28T10:59:50;18.00;99.90
5055;DHT22;13829;48.990;8.346;2023-04-28T11:02:47;18.10;99.90
5055;DHT22;13829;48.990;8.346;2023-04-28T11:05:16;18.10;99.90
5055;DHT22;13829;48.990;8.346;2023-04-28T11:11:17;18.10;99.90
5055;DHT22;13829;48.990;8.346;2023-04-28T11:13:48;18.00;99.90
5055;DHT22;13829;48.990;8.346;2023-04-28T11:16:18;18.10;99.90
5055;DHT22;13829;48.990;8.346;2023-04-28T11:18:57;17.90;99.90
5055;DHT22;13829;48.990;8.346;2023-04-28T11:21:29;18.00;99.90
5055;DHT22;13829;48.990;8.346;2023-04-28T11:23:57;18.00;99.90
5055;DHT22;13829;48.990;8.346;2023-04-28T11:26:25;18.00;99.90
5055;DHT22;13829;48.990;8.346;2023-04-28T11:28:55;17.90;99.90
5055;DHT22;13829;48.990;8.346;2023-04-28T11:31:24;17.90;99.90
5055;DHT22;13829;48.990;8.346;2023-04-28T11:33:56;17.80;99.90
5055;DHT22;13829;48.990;8.346;2023-04-28T11:36:30;17.70;99.90
5055;DHT22;13829;48.990;8.346;2023-04-28T11:39:00;17.60;99.90
5055;DHT22;13829;48.990;8.346;2023-04-28T11:41:30;17.60;99.90
5055;DHT22;13829;48.990;8.346;2023-04-28T11:44:00;17.50;99.90
5055;DHT22;13829;48.990;8.346;2023-04-28T11:46:35;17.50;99.90
5055;DHT22;13829;48.990;8.346;2023-04-28T11:49:10;17.50;99.90
5055;DHT22;13829;48.990;8.346;2023-04-28T11:51:39;17.60;99.90
5055;DHT22;13829;48.990;8.346;2023-04-28T11:54:07;17.70;99.90
5055;DHT22;13829;48.990;8.346;2023-04-28T11:56:37;17.70;99.90
5055;DHT22;13829;48.990;8.346;2023-04-28T11:59:07;17.80;99.90
5055;DHT22;13829;48.990;8.346;2023-04-28T12:01:44;17.80;99.90
5055;DHT22;13829;48.990;8.346;2023-04-28T12:04:13;17.80;99.90
5055;DHT22;13829;48.990;8.346;2023-04-28T12:06:40;17.70;99.90
5055;DHT22;13829;48.990;8.346;2023-04-28T12:09:17;17.60;99.90
5055;DHT22;13829;48.990;8.346;2023-04-28T12:11:52;17.40;99.90
5055;DHT22;13829;48.990;8.346;2023-04-28T12:14:23;17.40;99.90
5055;DHT22;13829;48.990;8.346;2023-04-28T12:16:50;17.30;99.90
5055;DHT22;13829;48.990;8.346;2023-04-28T12:19:17;17.30;99.90
5055;DHT22;13829;48.990;8.346;2023-04-28T12:21:58;17.40;99.90
5055;DHT22;13829;48.990;8.346;2023-04-28T12:24:27;17.60;99.90
5055;DHT22;13829;48.990;8.346;2023-04-28T12:26:54;17.90;99.90
5055;DHT22;13829;48.990;8.346;2023-04-28T12:29:42;18.20;99.90
5055;DHT22;13829;48.990;8.346;2023-04-28T12:32:11;18.40;99.90
5055;DHT22;13829;48.990;8.346;2023-04-28T12:34:39;18.40;99.90
5055;DHT22;13829;48.990;8.346;2023-04-28T12:37:07;18.20;99.90
5055;DHT22;13829;48.990;8.346;2023-04-28T12:39:35;18.40;99.90
5055;DHT22;13829;48.990;8.346;2023-04-28T12:42:03;18.50;99.90
5055;DHT22;13829;48.990;8.346;2023-04-28T12:44:34;18.50;99.90
5055;DHT22;13829;48.990;8.346;2023-04-28T12:47:06;18.60;99.90
5055;DHT22;13829;48.990;8.346;2023-04-28T12:49:35;18.70;99.90
5055;DHT22;13829;48.990;8.346;2023-04-28T12:52:03;18.70;99.90
5055;DHT22;13829;48.990;8.346;2023-04-28T12:54:31;18.80;99.90
5055;DHT22;13829;48.990;8.346;2023-04-28T12:56:58;18.70;99.90
5055;DHT22;13829;48.990;8.346;2023-04-28T12:59:25;18.60;99.90
5055;DHT22;13829;48.990;8.346;2023-04-28T13:01:53;18.50;99.90
5055;DHT22;13829;48.990;8.346;2023-04-28T13:04:22;18.60;99.90
5055;DHT22;13829;48.990;8.346;2023-04-28T13:06:49;18.70;99.90
5055;DHT22;13829;48.990;8.346;2023-04-28T13:09:16;18.90;99.90
5055;DHT22;13829;48.990;8.346;2023-04-28T13:11:43;19.00;99.90
5055;DHT22;13829;48.990;8.346;2023-04-28T13:14:10;19.10;99.90
5055;DHT22;13829;48.990;8.346;2023-04-28T13:16:36;19.10;99.90
5055;DHT22;13829;48.990;8.346;2023-04-28T13:19:04;19.30;99.90
5055;DHT22;13829;48.990;8.346;2023-04-28T13:21:35;19.20;99.90
5055;DHT22;13829;48.990;8.346;2023-04-28T13:24:03;19.20;99.90
5055;DHT22;13829;48.990;8.346;2023-04-28T13:26:31;19.20;99.90
5055;DHT22;13829;48.990;8.346;2023-04-28T13:28:58;19.20;99.90
5055;DHT22;13829;48.990;8.346;2023-04-28T13:31:25;19.10;99.90
5055;DHT22;13829;48.990;8.346;2023-04-28T13:33:52;19.10;99.90
5055;DHT22;13829;48.990;8.346;2023-04-28T13:36:20;18.90;99.90
5055;DHT22;13829;48.990;8.346;2023-04-28T13:38:49;18.80;99.90
5055;DHT22;13829;48.990;8.346;2023-04-28T13:41:16;18.60;99.90
5055;DHT22;13829;48.990;8.346;2023-04-28T13:43:43;18.50;99.90
5055;DHT22;13829;48.990;8.346;2023-04-28T13:46:11;18.50;99.90
5055;DHT22;13829;48.990;8.346;2023-04-28T13:48:38;18.50;99.90
5055;DHT22;13829;48.990;8.346;2023-04-28T13:51:06;18.40;99.90
5055;DHT22;13829;48.990;8.346;2023-04-28T13:53:35;18.50;99.90
5055;DHT22;13829;48.990;8.346;2023-04-28T13:56:05;18.60;99.90
5055;DHT22;13829;48.990;8.346;2023-04-28T13:58:33;18.60;99.90
5055;DHT22;13829;48.990;8.346;2023-04-28T14:01:01;18.70;99.90
5055;DHT22;13829;48.990;8.346;2023-04-28T14:03:29;18.80;99.90
5055;DHT22;13829;48.990;8.346;2023-04-28T14:05:57;18.90;99.90
5055;DHT22;13829;48.990;8.346;2023-04-28T14:08:24;18.90;99.90
5055;DHT22;13829;48.990;8.346;2023-04-28T14:10:51;19.10;99.90
5055;DHT22;13829;48.990;8.346;2023-04-28T14:13:20;19.10;99.90
5055;DHT22;13829;48.990;8.346;2023-04-28T14:15:50;19.20;99.90
5055;DHT22;13829;48.990;8.346;2023-04-28T14:18:17;19.40;99.90
5055;DHT22;13829;48.990;8.346;2023-04-28T14:20:44;19.20;99.90
5055;DHT22;13829;48.990;8.346;2023-04-28T14:23:11;19.30;99.90
5055;DHT22;13829;48.990;8.346;2023-04-28T14:25:40;19.30;99.90
5055;DHT22;13829;48.990;8.346;2023-04-28T14:28:07;19.30;99.90
5055;DHT22;13829;48.990;8.346;2023-04-28T14:30:36;19.40;99.90
5055;DHT22;13829;48.990;8.346;2023-04-28T14:33:03;19.40;99.90
5055;DHT22;13829;48.990;8.346;2023-04-28T14:35:30;19.40;99.90
5055;DHT22;13829;48.990;8.346;2023-04-28T14:37:57;19.40;99.90
5055;DHT22;13829;48.990;8.346;2023-04-28T14:40:24;19.40;99.90
5055;DHT22;13829;48.990;8.346;2023-04-28T14:42:51;19.30;99.90
5055;DHT22;13829;48.990;8.346;2023-04-28T14:45:18;19.10;99.90
5055;DHT22;13829;48.990;8.346;2023-04-28T14:47:46;19.10;99.90
5055;DHT22;13829;48.990;8.346;2023-04-28T14:50:14;19.10;99.90
5055;DHT22;13829;48.990;8.346;2023-04-28T14:52:41;19.30;99.90
5055;DHT22;13829;48.990;8.346;2023-04-28T14:55:08;19.30;99.90
5055;DHT22;13829;48.990;8.346;2023-04-28T14:57:35;19.40;99.90
5055;DHT22;13829;48.990;8.346;2023-04-28T15:00:03;19.30;99.90
5055;DHT22;13829;48.990;8.346;2023-04-28T15:02:32;19.20;99.90
5055;DHT22;13829;48.990;8.346;2023-04-28T15:05:01;19.10;99.90
5055;DHT22;13829;48.990;8.346;2023-04-28T15:07:29;19.00;99.90
5055;DHT22;13829;48.990;8.346;2023-04-28T15:09:57;18.80;99.90
5055;DHT22;13829;48.990;8.346;2023-04-28T15:12:24;18.60;99.90
5055;DHT22;13829;48.990;8.346;2023-04-28T15:14:54;18.30;99.90
5055;DHT22;13829;48.990;8.346;2023-04-28T15:17:21;18.40;99.90
5055;DHT22;13829;48.990;8.346;2023-04-28T15:19:48;18.40;99.90
5055;DHT22;13829;48.990;8.346;2023-04-28T15:22:17;18.50;99.90
5055;DHT22;13829;48.990;8.346;2023-04-28T15:24:44;18.60;99.90
5055;DHT22;13829;48.990;8.346;2023-04-28T15:27:10;18.30;99.90
5055;DHT22;13829;48.990;8.346;2023-04-28T15:29:37;18.40;99.90
5055;DHT22;13829;48.990;8.346;2023-04-28T15:32:04;18.30;99.90
5055;DHT22;13829;48.990;8.346;2023-04-28T15:34:34;18.40;99.90
5055;DHT22;13829;48.990;8.346;2023-04-28T15:37:02;18.50;99.90
5055;DHT22;13829;48.990;8.346;2023-04-28T15:39:53;18.50;99.90
5055;DHT22;13829;48.990;8.346;2023-04-28T15:42:20;18.50;99.90
5055;DHT22;13829;48.990;8.346;2023-04-28T15:44:47;18.50;99.90
5055;DHT22;13829;48.990;8.346;2023-04-28T15:47:14;18.40;99.90
5055;DHT22;13829;48.990;8.346;2023-04-28T15:49:42;18.30;99.90
5055;DHT22;13829;48.990;8.346;2023-04-28T15:52:09;18.20;99.90
5055;DHT22;13829;48.990;8.346;2023-04-28T15:54:37;18.10;99.90
5055;DHT22;13829;48.990;8.346;2023-04-28T15:57:06;18.20;99.90